Crab Orchard, West Virginia
Current Conditions -  °F | °C
As of 12:51 PM on Friday 24 Oct 2014 (Local Time) from KBKW Reporting Station
Clear Clear  
Wind Chill: 51°   Ceiling: Unl
Heat Index: 51°   Visibility: 10mi
Dew Point: 41°   Wind: 5mph
Humidity: 68%   Direction: 280°W
Pressure: 30.1"   Gusts: NA
Location:  37.74°N, 81.23°W
Report Text: KBKW 241651Z AUTO 28004KT 10SM CLR 11/05 A3010 RMK AO2 SLP201 T01060050 TSNO
Loading
Personal Weather Stations






























Interactive Weather Map
Tropical Storm Tracking
New forecast layout! Learn more

10-Day Weather Forecast

Advertisements
Track Severe Weather on mobile